Time;durP1;ratioP1;P1;durP2;ratioP2;P2;SDS_P1;SDS_P2;PMS_P1;PMS_P2;Temp;Humidity;BMP_temperature;BMP_pressure;BME280_temperature;BME280_humidity;BME280_pressure;Samples;Min_cycle;Max_cycle;Signal;HPM_P1;HPM_P2
2021/06/05 00:03:18;;;;;;;7.80;6.70;;;;;;;22.54;40.48;100667.90;2471809;80;25568;-81
2021/06/05 00:06:39;;;;;;;14.07;6.00;;;;;;;22.60;40.56;100675.29;2471515;79;25624;-81
2021/06/05 00:10:00;;;;;;;12.18;6.42;;;;;;;22.62;40.57;100681.45;2471327;79;25586;-83
2021/06/05 00:13:29;;;;;;;18.20;8.43;;;;;;;22.71;40.71;100690.12;2471579;79;25616;-80
2021/06/05 00:16:50;;;;;;;;;;;;;;;22.77;40.74;100690.87;2474465;79;25661;-79
2021/06/05 00:20:13;;;;;;;16.48;7.50;;;;;;;22.57;40.38;100689.09;2471709;79;25342;-80
2021/06/05 00:23:34;;;;;;;9.88;7.42;;;;;;;22.54;40.76;100695.80;2471366;79;25532;-81
2021/06/05 00:26:56;;;;;;;15.85;6.58;;;;;;;22.49;41.40;100694.58;2471507;79;25631;-79
2021/06/05 00:30:19;;;;;;;22.35;6.50;;;;;;;22.44;41.55;100683.61;2471798;79;25565;-82
2021/06/05 00:33:40;;;;;;;15.25;5.97;;;;;;;22.43;41.96;100681.88;2470410;79;25604;-82
2021/06/05 00:37:02;;;;;;;10.25;6.67;;;;;;;22.46;42.00;100686.66;2453928;80;25646;-80
2021/06/05 00:40:30;;;;;;;9.30;7.47;;;;;;;22.69;42.13;100690.17;2471175;79;25628;-80
2021/06/05 00:43:55;;;;;;;7.28;6.08;;;;;;;22.77;42.41;100702.83;2471481;79;25706;-79
2021/06/05 00:47:16;;;;;;;12.63;7.20;;;;;;;22.67;43.19;100694.63;2453698;80;25625;-83
2021/06/05 00:50:40;;;;;;;11.97;6.60;;;;;;;22.60;43.73;100695.22;2471737;79;25456;-82
2021/06/05 00:54:02;;;;;;;10.05;6.15;;;;;;;22.44;44.12;100663.69;2471267;79;25575;-82
2021/06/05 00:57:24;;;;;;;8.58;6.85;;;;;;;22.37;44.40;100665.13;2437346;79;25629;-80
2021/06/05 01:00:53;;;;;;;8.08;6.65;;;;;;;22.28;45.15;100664.02;2471659;78;25571;-81
2021/06/05 01:04:15;;;;;;;12.13;6.10;;;;;;;22.02;45.84;100668.47;2471330;80;25643;-82
2021/06/05 01:07:39;;;;;;;12.80;6.78;;;;;;;21.82;45.90;100675.47;2471748;80;25489;-80
2021/06/05 01:11:12;;;;;;;10.40;6.62;;;;;;;21.63;46.23;100667.40;2471330;80;25734;-84
2021/06/05 01:14:58;;;;;;;7.42;5.90;;;;;;;21.48;46.63;100664.56;2453174;80;25621;-83
2021/06/05 01:18:25;;;;;;;12.98;6.28;;;;;;;21.43;46.98;100663.33;2452484;80;25518;-83
2021/06/05 01:22:20;;;;;;;15.00;6.75;;;;;;;21.41;47.99;100658.95;2452767;80;25601;-81
2021/06/05 01:26:04;;;;;;;11.12;7.37;;;;;;;21.34;48.05;100655.52;2453177;80;25670;-79
2021/06/05 01:29:34;;;;;;;8.58;6.47;;;;;;;21.32;48.63;100649.31;2428031;81;25747;-82
2021/06/05 01:32:58;;;;;;;11.73;6.10;;;;;;;21.26;49.23;100642.78;2428132;81;25809;-82
2021/06/05 01:36:21;;;;;;;11.88;6.33;;;;;;;21.20;49.47;100631.84;2428421;81;26406;-82
2021/06/05 01:39:46;;;;;;;6.80;5.45;;;;;;;21.18;49.87;100625.67;2428006;81;25841;-81
2021/06/05 01:43:09;;;;;;;9.28;5.50;;;;;;;21.09;50.08;100616.53;2427728;81;26049;-82
2021/06/05 01:46:38;;;;;;;9.75;5.78;;;;;;;21.06;50.06;100603.78;2428081;81;25426;-84
2021/06/05 01:50:00;;;;;;;7.73;5.57;;;;;;;20.90;50.29;100602.72;2402639;81;25638;-83
2021/06/05 01:53:27;;;;;;;6.47;5.15;;;;;;;20.90;50.29;100602.72;2424354;81;25651;-78
2021/06/05 01:56:54;;;;;;;5.85;5.12;;;;;;;20.77;50.48;100599.82;2399138;81;25425;-83
2021/06/05 02:00:32;;;;;;;6.60;5.47;;;;;;;20.73;50.66;100599.45;2409441;81;25673;-82
2021/06/05 02:03:54;;;;;;;10.03;5.12;;;;;;;20.73;50.89;100600.77;2410293;82;25735;-79
2021/06/05 02:07:19;;;;;;;8.40;4.37;;;;;;;20.77;50.91;100604.25;2453177;78;25547;-82
2021/06/05 02:10:42;;;;;;;11.38;3.98;;;;;;;20.85;50.67;100605.00;2467276;80;25627;-81
2021/06/05 02:14:11;;;;;;;5.03;4.30;;;;;;;20.93;50.52;100607.10;2467482;80;25572;-81
2021/06/05 02:17:37;;;;;;;5.83;4.15;;;;;;;20.94;50.31;100605.73;2467285;79;25627;-78
2021/06/05 02:21:11;;;;;;;6.95;4.05;;;;;;;20.90;50.32;100597.87;2467402;80;25539;-79
2021/06/05 02:24:44;;;;;;;8.73;3.90;;;;;;;20.84;50.40;100600.15;2467622;78;25548;-82
2021/06/05 02:28:09;;;;;;;6.35;3.90;;;;;;;20.74;50.73;100596.76;2465073;79;25585;-79
2021/06/05 02:31:31;;;;;;;4.17;3.77;;;;;;;20.63;51.01;100597.38;2402169;80;25643;-79
2021/06/05 02:34:55;;;;;;;5.90;3.72;;;;;;;20.65;51.37;100591.59;2467905;79;25524;-79
2021/06/05 02:38:21;;;;;;;4.65;3.65;;;;;;;20.68;51.41;100591.55;2432079;80;25148;-78
2021/06/05 02:41:46;;;;;;;4.83;4.30;;;;;;;20.68;51.43;100594.19;2467762;78;25231;-79
2021/06/05 02:45:21;;;;;;;7.40;3.83;;;;;;;20.72;51.63;100589.30;2467692;79;25297;-80
2021/06/05 02:48:55;;;;;;;6.20;4.33;;;;;;;20.68;51.64;100587.57;2332784;84;25694;-85
2021/06/05 02:52:34;;;;;;;4.42;4.03;;;;;;;20.48;51.88;100582.52;2332769;84;25841;-79
2021/06/05 02:56:02;;;;;;;6.70;3.72;;;;;;;20.43;51.69;100584.83;2332584;84;25417;-81
2021/06/05 02:59:29;;;;;;;6.25;4.55;;;;;;;20.39;51.74;100576.05;2336504;84;26565;-81
2021/06/05 03:02:53;;;;;;;5.62;4.08;;;;;;;20.25;51.81;100560.80;2339581;84;25735;-79
2021/06/05 03:06:19;;;;;;;4.10;3.80;;;;;;;20.03;52.33;100554.44;2339491;83;25747;-79
2021/06/05 03:09:42;;;;;;;4.75;3.77;;;;;;;19.81;52.74;100546.36;2339362;84;25646;-80
2021/06/05 03:13:06;;;;;;;6.05;3.87;;;;;;;19.57;53.02;100537.77;2339540;84;25686;-80
2021/06/05 03:16:28;;;;;;;6.87;3.77;;;;;;;19.37;53.51;100540.16;2339426;84;25752;-79
2021/06/05 03:19:55;;;;;;;5.33;3.08;;;;;;;19.18;53.82;100530.23;2339558;84;25428;-81
2021/06/05 03:23:21;;;;;;;6.17;3.90;;;;;;;19.05;54.10;100531.66;2339991;82;26468;-80
2021/06/05 03:26:45;;;;;;;7.33;3.37;;;;;;;19.03;54.40;100527.27;2438164;80;25621;-80
2021/06/05 03:30:12;;;;;;;4.05;3.70;;;;;;;18.96;54.60;100531.72;2471216;80;25676;-83
2021/06/05 03:33:34;;;;;;;5.40;2.77;;;;;;;19.03;54.41;100540.47;2471224;80;25692;-79
2021/06/05 03:36:57;;;;;;;5.42;2.72;;;;;;;19.27;54.26;100543.34;2471110;79;25343;-79
2021/06/05 03:40:24;;;;;;;5.00;3.80;;;;;;;19.77;54.13;100544.16;2471296;79;25501;-80
2021/06/05 03:43:47;;;;;;;5.60;4.67;;;;;;;20.26;53.51;100550.18;2471017;80;25750;-79
2021/06/05 03:47:09;;;;;;;5.45;4.10;;;;;;;20.35;53.83;100556.23;2471219;79;25448;-79
2021/06/05 03:50:38;;;;;;;7.30;4.37;;;;;;;20.29;53.91;100562.06;2471683;79;25631;-77
2021/06/05 03:54:00;;;;;;;5.28;3.83;;;;;;;20.15;53.88;100558.72;2471288;79;25591;-78
2021/06/05 03:57:25;;;;;;;5.30;4.60;;;;;;;20.12;53.83;100561.86;2470918;80;25639;-81
2021/06/05 04:00:46;;;;;;;5.03;4.00;;;;;;;20.10;54.18;100568.93;2456886;79;25753;-78
2021/06/05 04:04:07;;;;;;;6.37;4.50;;;;;;;20.17;54.53;100575.44;2456251;79;25544;-78
2021/06/05 04:07:29;;;;;;;6.15;3.70;;;;;;;20.09;54.29;100561.89;2456381;79;30823;-78
2021/06/05 04:10:50;;;;;;;7.47;4.42;;;;;;;19.87;53.92;100559.48;2456277;79;25632;-81
2021/06/05 04:14:11;;;;;;;5.30;3.65;;;;;;;19.73;54.21;100562.74;2456071;80;25625;-80
2021/06/05 04:17:32;;;;;;;5.92;3.50;;;;;;;19.63;54.21;100556.67;2456221;80;31104;-80
2021/06/05 04:20:53;;;;;;;6.72;4.00;;;;;;;19.76;54.36;100565.36;2456491;80;25604;-79
2021/06/05 04:24:14;;;;;;;3.83;3.52;;;;;;;19.90;54.11;100570.03;2456566;80;31290;-81
2021/06/05 04:27:35;;;;;;;5.00;4.50;;;;;;;20.04;54.15;100560.61;2456326;79;30726;-82
2021/06/05 04:30:57;;;;;;;7.20;3.80;;;;;;;20.18;54.04;100566.63;2456545;79;25489;-78
2021/06/05 04:34:18;;;;;;;3.87;3.40;;;;;;;20.29;53.80;100572.65;2456289;79;25576;-81
2021/06/05 04:37:39;;;;;;;7.12;4.62;;;;;;;20.33;53.95;100573.94;2456309;79;25526;-80
2021/06/05 04:41:00;;;;;;;4.53;4.12;;;;;;;20.28;53.74;100575.30;2456194;79;25601;-81
2021/06/05 04:44:21;;;;;;;4.72;4.33;;;;;;;20.28;53.99;100566.94;2456411;79;31352;-83
2021/06/05 04:47:41;;;;;;;4.30;3.95;;;;;;;20.27;54.03;100577.08;2456594;79;25681;-80
2021/06/05 04:51:03;;;;;;;5.10;4.60;;;;;;;20.39;54.29;100573.41;2456813;79;30813;-79
2021/06/05 04:54:24;;;;;;;4.85;4.45;;;;;;;20.42;54.10;100573.36;2456651;79;25591;-78
2021/06/05 04:57:46;;;;;;;5.53;3.87;;;;;;;20.47;54.05;100575.48;2456413;79;25636;-80
2021/06/05 05:01:06;;;;;;;5.65;4.33;;;;;;;20.54;53.71;100576.30;2470240;79;25666;-79
2021/06/05 05:04:27;;;;;;;8.45;4.03;;;;;;;20.62;53.69;100573.11;2471857;80;25671;-84
2021/06/05 05:07:52;;;;;;;4.65;4.25;;;;;;;20.68;53.18;100576.97;2471631;78;25567;-80
2021/06/05 05:11:13;;;;;;;4.45;4.03;;;;;;;20.67;52.88;100572.58;2471311;79;25684;-80
2021/06/05 05:14:35;;;;;;;4.90;3.75;;;;;;;20.77;52.96;100575.10;2471808;79;25611;-81
2021/06/05 05:17:56;;;;;;;4.25;3.60;;;;;;;20.85;53.05;100576.72;2471872;79;25640;-82
2021/06/05 05:21:20;;;;;;;4.62;4.25;;;;;;;21.04;53.08;100582.61;2471808;80;25537;-80
2021/06/05 05:24:40;;;;;;;6.75;4.33;;;;;;;21.10;53.23;100577.22;2471910;80;25681;-82
2021/06/05 05:28:03;;;;;;;4.22;3.65;;;;;;;21.13;53.38;100580.28;2472067;79;25656;-81
2021/06/05 05:31:28;;;;;;;9.65;4.37;;;;;;;21.34;53.40;100585.66;2468675;79;25635;-83
2021/06/05 05:34:48;;;;;;;4.03;3.62;;;;;;;21.52;53.15;100582.70;2472121;78;25356;-86
2021/06/05 05:38:11;;;;;;;4.80;4.42;;;;;;;21.65;53.01;100582.02;2471459;79;25552;-84
2021/06/05 05:41:32;;;;;;;9.50;5.05;;;;;;;21.76;52.71;100585.34;2471351;79;25622;-80
2021/06/05 05:44:53;;;;;;;4.87;4.47;;;;;;;21.91;52.43;100584.19;2471963;78;25636;-80
2021/06/05 05:48:14;;;;;;;3.20;2.90;;;;;;;22.00;52.32;100590.62;2471763;79;25706;-80
2021/06/05 05:51:35;;;;;;;8.20;3.85;;;;;;;22.13;52.06;100596.10;2471700;79;25721;-79
2021/06/05 05:54:56;;;;;;;4.75;4.35;;;;;;;22.39;51.53;100601.36;2471680;79;25171;-83
2021/06/05 05:58:21;;;;;;;4.90;4.35;;;;;;;22.46;51.17;100598.99;2471512;79;25265;-81
2021/06/05 06:01:44;;;;;;;8.38;4.22;;;;;;;22.39;50.90;100603.56;2471959;80;25684;-79
2021/06/05 06:05:07;;;;;;;6.78;4.53;;;;;;;22.35;50.95;100606.33;2471010;79;25635;-80
2021/06/05 06:08:29;;;;;;;7.83;4.25;;;;;;;22.39;50.83;100608.01;2471467;79;25466;-79
2021/06/05 06:11:50;;;;;;;11.60;3.37;;;;;;;22.55;50.62;100606.77;2471417;78;25593;-79
2021/06/05 06:15:16;;;;;;;3.67;3.37;;;;;;;22.67;50.45;100612.25;2471524;80;25669;-79
2021/06/05 06:18:41;;;;;;;4.87;4.28;;;;;;;22.90;50.09;100617.50;2471813;79;25533;-82
2021/06/05 06:22:03;;;;;;;4.75;4.35;;;;;;;23.11;49.80;100621.00;2480034;79;25631;-80
2021/06/05 06:25:30;;;;;;;4.05;3.75;;;;;;;23.21;49.52;100620.33;2471596;79;25574;-80
2021/06/05 06:28:51;;;;;;;4.95;3.60;;;;;;;23.27;49.41;100622.84;2471397;79;25644;-84
2021/06/05 06:32:13;;;;;;;5.30;4.12;;;;;;;23.46;49.17;100621.47;2471604;79;25660;-80
2021/06/05 06:35:36;;;;;;;4.55;3.95;;;;;;;23.61;48.71;100622.84;2472159;79;25332;-81
2021/06/05 06:39:04;;;;;;;6.42;3.62;;;;;;;23.60;48.58;100613.58;2471159;78;25445;-83
2021/06/05 06:42:27;;;;;;;4.35;3.70;;;;;;;23.78;48.31;100617.10;2471786;79;25656;-80
2021/06/05 06:45:51;;;;;;;4.65;4.25;;;;;;;24.05;48.02;100620.79;2471771;79;25182;-82
2021/06/05 06:49:16;;;;;;;3.67;3.30;;;;;;;24.21;47.47;100613.24;2471541;79;25439;-84
2021/06/05 06:52:40;;;;;;;4.90;3.42;;;;;;;24.33;47.42;100618.66;2471315;79;25536;-80
2021/06/05 06:56:02;;;;;;;4.37;4.08;;;;;;;24.42;46.83;100623.29;2471882;79;25371;-80
2021/06/05 06:59:23;;;;;;;8.08;4.17;;;;;;;24.39;46.62;100620.69;2471172;79;25624;-88
2021/06/05 07:02:49;;;;;;;3.27;2.98;;;;;;;24.42;46.60;100615.76;2471592;79;25858;-83
2021/06/05 07:06:10;;;;;;;6.37;5.87;;;;;;;24.64;46.39;100615.53;2471542;79;25596;-81
2021/06/05 07:09:32;;;;;;;4.92;4.40;;;;;;;24.94;45.98;100614.13;2471435;79;25343;-81
2021/06/05 07:12:53;;;;;;;5.72;4.05;;;;;;;24.97;45.61;100614.04;2471506;78;25671;-87
2021/06/05 07:16:16;;;;;;;4.37;3.87;;;;;;;24.91;45.41;100611.59;2471487;79;25627;-90
2021/06/05 07:19:37;;;;;;;8.78;3.77;;;;;;;24.89;45.42;100606.29;2471697;79;25397;-90
2021/06/05 07:22:59;;;;;;;3.90;3.50;;;;;;;24.90;45.37;100607.16;2469766;79;25659;-83
2021/06/05 07:26:28;;;;;;;4.70;4.15;;;;;;;24.75;45.30;100604.53;2470401;79;25771;-83
2021/06/05 07:29:48;;;;;;;4.45;4.00;;;;;;;24.53;45.29;100604.77;2470478;79;25657;-83
2021/06/05 07:33:11;;;;;;;8.93;4.78;;;;;;;24.14;45.53;100604.55;2470916;79;25652;-80
2021/06/05 07:36:43;;;;;;;9.40;4.03;;;;;;;23.94;45.86;100609.58;2470508;79;25577;-85
2021/06/05 07:40:09;;;;;;;5.95;4.10;;;;;;;23.64;46.05;100604.13;2468819;79;25656;-81
2021/06/05 07:43:31;;;;;;;4.72;4.30;;;;;;;23.43;46.63;100600.72;2452904;80;25606;-80
2021/06/05 07:46:56;;;;;;;8.90;4.90;;;;;;;23.26;46.98;100605.14;2451637;80;25918;-84
2021/06/05 07:50:18;;;;;;;6.28;4.72;;;;;;;23.13;47.25;100605.02;2456848;80;25699;-80
2021/06/05 07:53:39;;;;;;;4.67;4.22;;;;;;;;;;2442226;80;25635;-89
2021/06/05 07:57:00;;;;;;;8.13;4.17;;;;;;;23.01;47.83;100612.83;2447961;80;30931;-84
2021/06/05 08:00:26;;;;;;;7.72;4.35;;;;;;;23.02;48.06;100613.27;2461632;80;25632;-88
2021/06/05 08:03:47;;;;;;;6.60;4.42;;;;;;;23.07;48.13;100613.55;2455257;80;25624;-84
2021/06/05 08:07:09;;;;;;;5.35;4.45;;;;;;;23.16;48.18;100616.45;2455103;80;25679;-81
2021/06/05 08:10:32;;;;;;;5.40;4.12;;;;;;;23.23;48.26;100612.73;2432987;80;25305;-81
2021/06/05 08:13:53;;;;;;;5.97;3.72;;;;;;;23.18;48.23;100611.95;2454720;80;25802;-82
2021/06/05 08:17:15;;;;;;;6.80;3.92;;;;;;;23.21;48.33;100611.02;2418292;80;25895;-81
2021/06/05 08:20:47;;;;;;;4.72;3.30;;;;;;;23.10;48.25;100607.30;2444601;80;25591;-84
2021/06/05 08:24:12;;;;;;;6.33;3.92;;;;;;;23.09;48.62;100606.89;2430026;80;25862;-84
2021/06/05 08:27:39;;;;;;;5.45;3.87;;;;;;;23.16;48.39;100600.96;2414025;80;25693;-80
2021/06/05 08:31:05;;;;;;;5.95;3.83;;;;;;;23.19;48.44;100600.89;2435466;80;25648;-84
2021/06/05 08:34:31;;;;;;;6.30;3.87;;;;;;;23.27;48.44;100590.91;2454282;80;25668;-82
2021/06/05 08:37:49;;;;;;;5.60;4.70;;;;;;;23.27;48.39;100590.45;2460724;79;25632;-81
2021/06/05 08:41:27;;;;;;;5.25;3.98;;;;;;;23.41;48.28;100591.42;2457879;80;25738;-84
2021/06/05 08:44:50;;;;;;;4.30;3.30;;;;;;;23.52;48.14;100585.39;2460052;80;25756;-81
2021/06/05 08:48:20;;;;;;;6.37;4.37;;;;;;;23.68;48.13;100591.19;2429378;80;25717;-82
2021/06/05 08:52:07;;;;;;;4.85;4.35;;;;;;;23.80;47.63;100594.85;2422888;80;25608;-80
2021/06/05 08:55:43;;;;;;;6.80;3.77;;;;;;;23.93;47.57;100591.86;2422303;80;25747;-82
2021/06/05 08:59:04;;;;;;;5.15;4.42;;;;;;;24.21;47.34;100591.47;2339562;81;25761;-80
2021/06/05 09:02:27;;;;;;;5.75;4.25;;;;;;;24.29;46.66;100591.23;2339299;83;25800;-80
2021/06/05 09:06:20;;;;;;;4.25;3.85;;;;;;;24.35;46.34;100593.72;2359900;83;25942;-80
2021/06/05 09:09:46;;;;;;;3.87;3.58;;;;;;;24.28;46.21;100591.70;2365486;82;25645;-82
2021/06/05 09:13:09;;;;;;;4.67;3.53;;;;;;;24.17;46.05;100591.61;2309505;85;25719;-81
2021/06/05 09:16:47;;;;;;;7.17;4.00;;;;;;;24.23;46.09;100598.06;2314164;83;25672;-81
2021/06/05 09:20:13;;;;;;;6.08;3.98;;;;;;;24.39;46.05;100587.83;2339537;83;25729;-80
2021/06/05 09:23:42;;;;;;;5.55;3.77;;;;;;;24.42;45.80;100594.44;2339611;84;25710;-80
2021/06/05 09:27:15;;;;;;;5.60;3.60;;;;;;;24.51;45.79;100590.17;2315878;84;25702;-79
2021/06/05 09:30:38;;;;;;;3.08;2.87;;;;;;;24.50;45.27;100591.97;2340292;83;25674;-81
2021/06/05 09:33:59;;;;;;;5.05;3.62;;;;;;;24.49;45.21;100593.33;2342540;83;25720;-79
2021/06/05 09:37:54;;;;;;;4.03;3.62;;;;;;;24.48;45.24;100587.13;2443055;80;25701;-82
2021/06/05 09:41:23;;;;;;;2.92;2.50;;;;;;;24.58;45.04;100588.19;2453864;80;25629;-75
2021/06/05 09:44:49;;;;;;;6.03;3.10;;;;;;;24.74;45.39;100585.00;2441862;80;25910;-77
2021/06/05 09:48:31;;;;;;;3.08;2.72;;;;;;;25.16;45.46;100585.87;2451279;80;25695;-74
